Time;durP1;ratioP1;P1;durP2;ratioP2;P2;SDS_P1;SDS_P2;PMS_P1;PMS_P2;Temp;Humidity;BMP_temperature;BMP_pressure;BME280_temperature;BME280_humidity;BME280_pressure;Samples;Min_cycle;Max_cycle;Signal;HPM_P1;HPM_P2
2023/10/04 00:00:20;;;;;;;14.68;5.00;;;;;;;20.60;73.05;99788.19;4907311;29;20531;-85
2023/10/04 00:03:05;;;;;;;18.85;4.53;;;;;;;20.67;73.27;99788.81;4905399;29;20047;-85
2023/10/04 00:05:49;;;;;;;9.90;4.78;;;;;;;20.71;73.57;99791.81;4901991;29;20036;-85
2023/10/04 00:08:33;;;;;;;17.83;5.93;;;;;;;20.77;73.24;99780.16;4901006;29;20064;-85
2023/10/04 00:11:17;;;;;;;18.08;5.20;;;;;;;20.89;72.78;99778.25;4902509;29;20056;-85
2023/10/04 00:14:01;;;;;;;14.85;5.43;;;;;;;20.81;73.62;99765.31;4908093;29;20082;-86
2023/10/04 00:16:45;;;;;;;15.77;5.53;;;;;;;20.59;73.34;99768.69;4905523;29;20104;-85
2023/10/04 00:19:29;;;;;;;12.10;5.03;;;;;;;20.60;73.24;99780.97;4907057;29;20205;-86
2023/10/04 00:22:13;;;;;;;18.40;5.38;;;;;;;20.36;73.75;99759.81;4885855;29;20391;-86
2023/10/04 00:25:03;;;;;;;14.05;5.00;;;;;;;20.40;74.12;99766.25;4902793;29;20553;-86
2023/10/04 00:27:49;;;;;;;11.05;4.95;;;;;;;20.38;73.84;99757.69;4905722;29;20039;-85
2023/10/04 00:30:34;;;;;;;19.33;5.40;;;;;;;20.38;73.89;99772.91;4906169;29;20366;-86
2023/10/04 00:33:19;;;;;;;13.35;5.90;;;;;;;20.25;73.50;99768.69;4892685;29;20076;-86
2023/10/04 00:36:03;;;;;;;15.38;5.43;;;;;;;20.18;73.46;99762.69;4906591;29;20046;-85
2023/10/04 00:38:47;;;;;;;11.88;4.90;;;;;;;20.06;74.47;99768.91;4893169;29;20099;-86
2023/10/04 00:41:32;;;;;;;13.95;5.22;;;;;;;20.41;73.85;99759.88;4909939;29;20040;-84
2023/10/04 00:44:16;;;;;;;17.00;5.18;;;;;;;20.35;73.68;99750.19;4902817;29;20040;-85
2023/10/04 00:47:01;;;;;;;15.00;5.55;;;;;;;20.41;73.82;99745.75;4895447;29;20112;-86
2023/10/04 00:49:45;;;;;;;14.93;5.10;;;;;;;20.43;73.77;99738.31;4910839;29;20081;-83
2023/10/04 00:52:30;;;;;;;21.63;6.20;;;;;;;20.87;72.47;99739.50;4894637;29;20059;-85
2023/10/04 00:55:19;;;;;;;13.57;4.97;;;;;;;21.07;71.86;99757.69;4908646;29;20126;-84
2023/10/04 00:58:05;;;;;;;15.98;5.40;;;;;;;20.67;72.43;99744.28;4894012;29;20052;-85
2023/10/04 01:00:50;;;;;;;21.45;6.22;;;;;;;20.45;73.16;99735.41;4912496;29;20052;-84
2023/10/04 01:03:37;;;;;;;19.77;5.97;;;;;;;20.15;73.54;99737.34;4907109;29;20087;-85
2023/10/04 01:06:21;;;;;;;16.23;6.68;;;;;;;20.04;74.49;99747.00;4901400;29;20509;-84
2023/10/04 01:09:06;;;;;;;21.80;6.15;;;;;;;20.12;74.07;99748.47;4907603;29;20462;-84
2023/10/04 01:11:50;;;;;;;16.33;6.38;;;;;;;19.96;74.85;99760.72;4913190;29;20123;-85
2023/10/04 01:14:37;;;;;;;22.73;6.95;;;;;;;19.81;75.83;99754.03;4902336;29;20054;-84
2023/10/04 01:17:22;;;;;;;21.38;6.75;;;;;;;19.84;75.32;99748.22;4910475;29;20051;-84
2023/10/04 01:20:13;;;;;;;16.05;6.50;;;;;;;19.75;75.39;99743.50;4889869;29;20154;-83
2023/10/04 01:23:01;;;;;;;20.25;7.57;;;;;;;19.79;76.12;99745.47;4911761;29;20068;-85
2023/10/04 01:25:47;;;;;;;19.90;6.18;;;;;;;19.78;75.79;99735.84;4910635;29;20097;-85
2023/10/04 01:28:31;;;;;;;21.05;6.53;;;;;;;19.92;75.55;99738.28;4909659;29;20055;-85
2023/10/04 01:31:15;;;;;;;18.42;6.60;;;;;;;19.84;75.51;99740.22;4913195;29;20522;-84
2023/10/04 01:33:59;;;;;;;20.08;6.82;;;;;;;19.89;75.47;99746.72;4907615;29;20522;-85
2023/10/04 01:36:43;;;;;;;21.25;7.50;;;;;;;19.75;75.94;99741.66;4900640;29;20285;-85
2023/10/04 01:39:30;;;;;;;19.52;6.13;;;;;;;19.72;75.97;99739.47;4887096;29;20092;-85
2023/10/04 01:42:14;;;;;;;18.33;6.68;;;;;;;19.76;76.19;99729.97;4897365;29;20406;-85
2023/10/04 01:44:58;;;;;;;24.52;7.05;;;;;;;19.67;76.28;99723.41;4888421;29;20051;-85
2023/10/04 01:47:42;;;;;;;27.67;7.32;;;;;;;19.93;76.24;99730.03;4887290;29;20176;-85
2023/10/04 01:50:29;;;;;;;21.83;7.00;;;;;;;19.97;75.84;99733.03;4910841;29;20052;-85
2023/10/04 01:53:13;;;;;;;21.88;7.10;;;;;;;19.91;76.23;99733.97;4896728;29;20047;-85
2023/10/04 01:55:57;;;;;;;15.63;6.93;;;;;;;19.87;76.49;99727.50;4905701;29;20055;-86
2023/10/04 01:58:41;;;;;;;16.73;7.80;;;;;;;20.15;76.51;99732.03;4909544;29;20047;-86
2023/10/04 02:01:26;;;;;;;24.52;7.72;;;;;;;20.18;75.98;99733.38;4904959;29;20139;-85
2023/10/04 02:04:10;;;;;;;21.30;7.57;;;;;;;20.15;76.37;99715.19;4908989;29;20104;-87
2023/10/04 02:06:54;;;;;;;19.23;6.93;;;;;;;20.22;76.50;99724.66;4894760;29;20110;-86
2023/10/04 02:09:38;;;;;;;19.98;8.38;;;;;;;20.17;77.64;99723.75;4909541;29;20118;-86
2023/10/04 02:12:22;;;;;;;21.77;8.40;;;;;;;20.30;77.54;99723.44;4909543;29;20132;-86
2023/10/04 02:15:09;;;;;;;15.20;7.28;;;;;;;20.48;77.18;99724.25;4893019;29;20069;-84
2023/10/04 02:17:58;;;;;;;20.17;7.72;;;;;;;20.58;77.43;99715.59;4892133;29;20047;-84
2023/10/04 02:20:46;;;;;;;20.95;7.03;;;;;;;20.48;77.47;99716.25;4906639;29;20083;-86
2023/10/04 02:23:32;;;;;;;19.40;8.05;;;;;;;20.61;77.61;99718.56;4902242;29;20554;-85
2023/10/04 02:26:15;;;;;;;20.92;7.82;;;;;;;20.67;76.94;99706.13;4894769;29;20054;-85
2023/10/04 02:28:59;;;;;;;24.77;8.52;;;;;;;20.69;77.71;99707.50;4904801;29;20056;-86
2023/10/04 02:31:44;;;;;;;21.73;8.30;;;;;;;20.57;77.81;99712.13;4895795;29;20046;-85
2023/10/04 02:34:28;;;;;;;18.25;8.00;;;;;;;20.75;77.70;99715.56;4896821;29;20506;-85
2023/10/04 02:37:12;;;;;;;21.25;7.97;;;;;;;20.71;77.46;99727.78;4907090;29;20091;-85
2023/10/04 02:39:57;;;;;;;16.58;6.85;;;;;;;20.69;78.02;99718.19;4903500;29;20047;-85
2023/10/04 02:42:44;;;;;;;14.57;6.70;;;;;;;20.59;78.35;99712.69;4906159;29;20574;-85
2023/10/04 02:45:29;;;;;;;17.83;7.30;;;;;;;20.79;78.01;99717.50;4901860;29;20551;-83
2023/10/04 02:48:13;;;;;;;16.55;7.00;;;;;;;20.87;78.40;99721.66;4905399;29;20118;-83
2023/10/04 02:50:57;;;;;;;19.83;7.50;;;;;;;20.71;78.17;99712.56;4891998;29;20180;-84
2023/10/04 02:53:41;;;;;;;22.23;8.05;;;;;;;20.49;78.67;99713.34;4890629;29;20043;-84
2023/10/04 02:56:26;;;;;;;16.30;6.40;;;;;;;20.74;78.83;99719.28;4904426;29;20107;-84
2023/10/04 02:59:11;;;;;;;18.30;6.18;;;;;;;20.80;78.57;99697.81;4913531;29;20526;-84
2023/10/04 03:01:55;;;;;;;16.42;6.85;;;;;;;20.83;78.39;99713.31;4906796;29;20063;-87
2023/10/04 03:04:41;;;;;;;11.73;5.95;;;;;;;20.76;78.37;99719.84;4907897;29;20062;-86
2023/10/04 03:07:27;;;;;;;12.85;5.68;;;;;;;20.93;78.19;99699.31;4905576;29;20083;-86
2023/10/04 03:10:12;;;;;;;18.25;6.38;;;;;;;20.98;78.00;99694.03;4903768;29;20055;-85
2023/10/04 03:12:59;;;;;;;27.70;7.60;;;;;;;20.87;77.65;99694.16;4905027;29;20047;-84
2023/10/04 03:15:45;;;;;;;14.88;6.28;;;;;;;20.95;77.35;99702.53;4893837;29;20050;-83
2023/10/04 03:18:31;;;;;;;13.43;5.90;;;;;;;20.86;77.77;99698.69;4886877;29;20502;-83
2023/10/04 03:21:20;;;;;;;12.30;5.63;;;;;;;20.76;77.63;99694.00;4900641;29;20410;-85
2023/10/04 03:24:06;;;;;;;13.98;5.72;;;;;;;20.92;77.05;99711.03;4903704;29;20047;-84
2023/10/04 03:26:51;;;;;;;11.68;5.82;;;;;;;20.73;77.37;99713.13;4895901;29;20055;-85
2023/10/04 03:29:35;;;;;;;14.27;4.90;;;;;;;20.82;76.78;99697.53;4904239;29;20098;-86
2023/10/04 03:32:21;;;;;;;9.45;4.63;;;;;;;20.82;76.74;99705.56;4891800;29;20140;-84
2023/10/04 03:35:07;;;;;;;15.07;4.63;;;;;;;20.90;76.22;99699.81;4891901;29;20052;-85
2023/10/04 03:37:58;;;;;;;10.75;4.72;;;;;;;20.69;76.84;99702.16;4893053;29;20502;-84
2023/10/04 03:40:42;;;;;;;9.85;4.40;;;;;;;21.00;76.24;99695.66;4907220;29;20533;-85
2023/10/04 03:43:26;;;;;;;18.73;6.15;;;;;;;21.03;76.08;99697.81;4886197;29;20050;-85
2023/10/04 03:46:19;;;;;;;13.45;4.22;;;;;;;20.98;75.84;99683.34;4907822;29;20130;-85
2023/10/04 03:49:03;;;;;;;12.02;5.30;;;;;;;20.93;75.56;99683.31;4888852;29;20047;-85
2023/10/04 03:51:49;;;;;;;13.27;4.82;;;;;;;21.19;75.48;99686.28;4903745;29;20052;-84
2023/10/04 03:54:36;;;;;;;8.15;3.90;;;;;;;20.98;75.94;99694.03;4904817;29;20076;-84
2023/10/04 03:57:21;;;;;;;12.50;5.13;;;;;;;21.06;75.93;99689.34;4903453;29;20076;-86
2023/10/04 04:00:11;;;;;;;11.00;4.82;;;;;;;21.05;75.72;99687.72;4892125;29;20118;-85
2023/10/04 04:02:55;;;;;;;8.52;4.75;;;;;;;21.07;75.34;99682.94;4904636;29;20474;-85
2023/10/04 04:05:42;;;;;;;15.45;5.00;;;;;;;20.65;76.26;99677.03;4888633;29;20143;-83
2023/10/04 04:08:26;;;;;;;11.32;4.55;;;;;;;20.55;76.69;99661.72;4908994;29;20131;-84
2023/10/04 04:11:12;;;;;;;9.85;4.18;;;;;;;20.61;76.27;99664.44;4911079;29;20112;-84
2023/10/04 04:13:57;;;;;;;8.85;3.80;;;;;;;20.81;75.67;99663.91;4909076;29;20103;-84
2023/10/04 04:16:43;;;;;;;11.80;4.18;;;;;;;20.82;75.31;99670.88;4908988;29;20051;-83
2023/10/04 04:19:27;;;;;;;7.47;4.10;;;;;;;20.66;75.88;99673.31;4899871;29;20051;-85
2023/10/04 04:22:11;;;;;;;10.43;4.55;;;;;;;20.54;76.26;99684.09;4894345;29;20051;-85
2023/10/04 04:24:56;;;;;;;9.80;3.97;;;;;;;20.21;76.48;99676.91;4896843;29;20100;-84
2023/10/04 04:27:43;;;;;;;8.80;3.95;;;;;;;20.43;76.04;99679.66;4895582;29;20045;-84
2023/10/04 04:30:35;;;;;;;10.27;4.03;;;;;;;20.54;75.71;99680.63;4907367;29;20059;-85
2023/10/04 04:33:23;;;;;;;12.05;4.20;;;;;;;20.54;75.31;99686.75;4905476;29;20156;-83
2023/10/04 04:36:17;;;;;;;9.00;4.10;;;;;;;20.28;75.71;99688.25;4894419;29;20537;-85
2023/10/04 04:39:05;;;;;;;10.90;3.58;;;;;;;20.49;75.67;99683.22;4891382;29;20100;-84
2023/10/04 04:41:52;;;;;;;14.95;4.10;;;;;;;20.27;75.78;99681.28;4903205;29;20506;-85
2023/10/04 04:44:41;;;;;;;12.38;3.85;;;;;;;20.55;74.86;99677.72;4912377;29;20531;-86
2023/10/04 04:47:25;;;;;;;10.20;4.13;;;;;;;20.43;75.09;99679.66;4909131;29;20043;-86
2023/10/04 04:50:11;;;;;;;7.93;3.63;;;;;;;20.57;74.29;99682.78;4896133;29;20047;-85
2023/10/04 04:52:54;;;;;;;10.05;3.30;;;;;;;20.65;74.02;99690.38;4911246;29;20100;-86
2023/10/04 04:55:39;;;;;;;8.73;3.28;;;;;;;20.50;73.61;99690.16;4895450;29;20046;-86
2023/10/04 04:58:23;;;;;;;10.43;3.83;;;;;;;20.39;73.95;99691.88;4906554;29;20112;-86
2023/10/04 05:01:11;;;;;;;6.32;2.72;;;;;;;20.41;74.11;99679.09;4893871;29;20516;-85
2023/10/04 05:03:55;;;;;;;13.93;3.55;;;;;;;20.24;74.17;99671.09;4907223;29;20073;-86
2023/10/04 05:06:39;;;;;;;10.90;2.97;;;;;;;20.31;74.24;99682.41;4907478;29;20170;-85
2023/10/04 05:09:23;;;;;;;11.82;3.38;;;;;;;20.27;74.01;99675.97;4913430;29;20070;-85
2023/10/04 05:12:08;;;;;;;6.32;3.00;;;;;;;20.12;74.50;99682.66;4893973;29;20077;-86
2023/10/04 05:14:53;;;;;;;8.32;2.72;;;;;;;20.14;74.10;99673.63;4908744;29;20082;-86
2023/10/04 05:17:37;;;;;;;10.27;3.05;;;;;;;20.10;74.25;99666.09;4909670;29;20127;-85
2023/10/04 05:20:21;;;;;;;10.02;3.00;;;;;;;20.15;73.93;99673.38;4905349;29;20052;-85
2023/10/04 05:23:05;;;;;;;10.32;3.10;;;;;;;20.11;74.24;99667.72;4894299;29;20391;-85
2023/10/04 05:25:50;;;;;;;10.48;3.30;;;;;;;20.18;74.06;99672.06;4894573;29;20452;-85
2023/10/04 05:28:35;;;;;;;10.23;3.20;;;;;;;20.04;74.73;99676.91;4911008;29;20096;-86
2023/10/04 05:31:19;;;;;;;8.13;3.50;;;;;;;20.18;74.72;99685.41;4907882;29;20050;-86
2023/10/04 05:34:03;;;;;;;10.35;3.53;;;;;;;20.08;75.04;99670.88;4908336;29;20086;-84
2023/10/04 05:36:47;;;;;;;10.82;3.25;;;;;;;20.06;75.11;99648.16;4906302;29;20063;-83
2023/10/04 05:39:32;;;;;;;9.43;3.63;;;;;;;20.09;74.96;99651.16;4904146;29;20068;-84
2023/10/04 05:42:16;;;;;;;8.65;4.22;;;;;;;20.47;74.33;99680.00;4900583;29;20042;-86
2023/10/04 05:45:00;;;;;;;7.55;3.13;;;;;;;20.53;73.97;99663.00;4906597;29;20038;-85
2023/10/04 05:47:45;;;;;;;10.43;3.72;;;;;;;20.33;74.57;99666.16;4897328;29;20051;-84
2023/10/04 05:50:32;;;;;;;6.28;3.00;;;;;;;20.33;74.03;99656.31;4891032;29;20109;-85
2023/10/04 05:53:20;;;;;;;7.85;3.33;;;;;;;20.00;73.93;99652.59;4905770;29;20055;-84
2023/10/04 05:56:04;;;;;;;11.60;3.38;;;;;;;20.37;73.95;99670.78;4907888;29;20091;-85
2023/10/04 05:58:47;;;;;;;7.25;3.47;;;;;;;20.38;73.90;99660.94;4891227;29;20060;-83
2023/10/04 06:01:34;;;;;;;11.98;4.28;;;;;;;20.34;73.86;99657.09;4904289;29;20067;-85
2023/10/04 06:04:18;;;;;;;7.07;2.92;;;;;;;20.21;73.59;99644.94;4885209;29;20102;-84
2023/10/04 06:07:02;;;;;;;9.65;5.65;;;;;;;20.26;74.39;99659.16;4902008;29;20051;-84
2023/10/04 06:09:46;;;;;;;9.95;5.88;;;;;;;20.36;74.31;99658.50;4907441;29;20522;-83
2023/10/04 06:12:31;;;;;;;11.38;4.35;;;;;;;20.23;74.27;99669.47;4905938;29;20047;-83
2023/10/04 06:15:16;;;;;;;6.68;3.28;;;;;;;20.43;73.89;99665.50;4909335;29;20051;-82
2023/10/04 06:18:01;;;;;;;5.85;3.58;;;;;;;20.27;74.36;99662.63;4890420;29;20072;-88
2023/10/04 06:20:45;;;;;;;10.32;2.92;;;;;;;20.43;74.62;99658.31;4909157;29;20047;-87
2023/10/04 06:23:32;;;;;;;9.15;3.90;;;;;;;20.37;74.27;99660.09;4900479;29;20047;-85
2023/10/04 06:26:16;;;;;;;9.18;3.28;;;;;;;20.33;74.44;99660.81;4908963;29;20054;-87
2023/10/04 06:29:01;;;;;;;8.45;3.90;;;;;;;20.39;74.37;99668.66;4893973;29;20132;-85
2023/10/04 06:31:46;;;;;;;9.75;3.80;;;;;;;20.37;74.49;99665.44;4893482;29;20063;-86
2023/10/04 06:34:30;;;;;;;7.05;3.22;;;;;;;20.40;74.49;99674.81;4909997;29;20114;-86
2023/10/04 06:37:14;;;;;;;11.10;3.55;;;;;;;20.59;74.61;99662.00;4910559;29;20091;-85
2023/10/04 06:39:58;;;;;;;10.07;3.47;;;;;;;20.74;74.33;99657.94;4910045;29;20510;-85
2023/10/04 06:42:44;;;;;;;7.38;3.80;;;;;;;20.36;74.86;99647.03;4895038;29;20128;-84
2023/10/04 06:45:28;;;;;;;9.77;3.47;;;;;;;20.34;74.86;99644.59;4915494;29;20410;-84
2023/10/04 06:48:12;;;;;;;10.65;4.07;;;;;;;20.39;74.81;99654.53;4888865;29;20047;-84
2023/10/04 06:50:56;;;;;;;13.50;3.65;;;;;;;20.03;74.81;99648.66;4905060;29;20108;-81
2023/10/04 06:53:43;;;;;;;9.63;3.63;;;;;;;20.34;74.43;99655.25;4905527;29;20038;-83
2023/10/04 06:56:27;;;;;;;7.53;3.67;;;;;;;20.55;74.04;99644.88;4902803;29;20067;-83
2023/10/04 06:59:12;;;;;;;6.97;3.97;;;;;;;20.07;74.20;99650.59;4906755;29;20099;-84
2023/10/04 07:01:56;;;;;;;10.98;3.78;;;;;;;20.39;74.13;99651.88;4879581;29;20047;-83
2023/10/04 07:04:40;;;;;;;10.52;3.80;;;;;;;20.89;73.72;99644.84;4895437;29;20173;-83
2023/10/04 07:07:24;;;;;;;13.05;3.67;;;;;;;20.95;73.12;99661.72;4904840;29;20479;-83
2023/10/04 07:10:09;;;;;;;7.55;3.75;;;;;;;20.56;73.73;99646.50;4904042;29;20104;-83
2023/10/04 07:12:56;;;;;;;8.73;3.97;;;;;;;20.62;73.51;99664.19;4895409;29;20087;-82
2023/10/04 07:15:41;;;;;;;7.82;3.90;;;;;;;20.68;73.91;99655.22;4892287;29;20054;-82
2023/10/04 07:18:26;;;;;;;9.27;4.20;;;;;;;20.67;74.20;99666.94;4901454;29;20517;-82
2023/10/04 07:21:10;;;;;;;9.52;3.83;;;;;;;20.88;74.05;99664.56;4901196;29;20039;-83
2023/10/04 07:23:55;;;;;;;7.40;3.90;;;;;;;20.83;73.59;99661.81;4900510;29;20095;-83
2023/10/04 07:26:39;;;;;;;14.43;4.45;;;;;;;20.75;74.19;99659.56;4897562;29;20443;-84
2023/10/04 07:29:23;;;;;;;9.07;3.63;;;;;;;20.89;73.95;99671.50;4905721;29;20043;-83
2023/10/04 07:32:07;;;;;;;13.15;4.20;;;;;;;20.76;73.49;99658.50;4878371;29;20647;-83
2023/10/04 07:34:51;;;;;;;6.15;3.88;;;;;;;20.87;73.81;99662.94;4902660;29;20100;-82
2023/10/04 07:37:36;;;;;;;4.68;3.65;;;;;;;21.16;74.14;99659.28;4904898;29;20063;-83
2023/10/04 07:40:25;;;;;;;10.93;4.20;;;;;;;21.36;73.95;99670.19;4906501;29;20112;-86
2023/10/04 07:43:09;;;;;;;6.80;3.70;;;;;;;21.10;74.53;99674.44;4889842;29;20104;-84
2023/10/04 07:45:56;;;;;;;10.48;4.00;;;;;;;21.31;73.67;99680.78;4897933;29;20052;-84
2023/10/04 07:48:42;;;;;;;10.63;3.50;;;;;;;21.12;73.46;99675.00;4893907;29;20509;-84
2023/10/04 07:51:26;;;;;;;12.60;3.90;;;;;;;21.68;73.04;99680.16;4897719;29;20046;-83
2023/10/04 07:54:10;;;;;;;10.35;3.38;;;;;;;21.42;73.45;99676.41;4886413;29;20047;-83
2023/10/04 07:56:54;;;;;;;8.70;3.30;;;;;;;21.89;72.47;99693.69;4902368;29;20410;-83
2023/10/04 07:59:41;;;;;;;13.30;3.60;;;;;;;21.72;72.37;99691.13;4903009;29;20092;-83
2023/10/04 08:02:25;;;;;;;8.45;3.80;;;;;;;21.71;72.82;99696.72;4888355;29;20120;-84
2023/10/04 08:05:10;;;;;;;7.97;3.70;;;;;;;22.04;72.13;99692.22;4903051;29;20115;-85
2023/10/04 08:07:56;;;;;;;8.30;3.58;;;;;;;22.05;72.39;99707.19;4905534;29;20043;-84
2023/10/04 08:10:41;;;;;;;8.52;3.90;;;;;;;22.13;72.26;99713.94;4903397;29;20060;-84
2023/10/04 08:13:26;;;;;;;10.43;4.70;;;;;;;22.10;72.50;99710.72;4903459;29;20055;-83
2023/10/04 08:16:10;;;;;;;9.75;4.32;;;;;;;21.77;72.89;99699.19;4908436;29;20043;-84
2023/10/04 08:18:55;;;;;;;7.78;4.32;;;;;;;21.99;72.63;99698.31;4905861;29;20513;-85
2023/10/04 08:21:40;;;;;;;8.02;4.55;;;;;;;21.89;72.58;99682.22;4909953;29;20076;-84
2023/10/04 08:24:24;;;;;;;16.15;4.88;;;;;;;22.01;72.78;99695.41;4910559;29;20087;-84
2023/10/04 08:27:09;;;;;;;11.40;4.57;;;;;;;22.15;72.36;99674.41;4898464;29;20071;-84
2023/10/04 08:29:54;;;;;;;9.38;4.43;;;;;;;22.30;71.93;99690.56;4912302;29;20047;-85
2023/10/04 08:32:41;;;;;;;9.85;4.35;;;;;;;22.62;71.33;99684.38;4892054;29;20055;-84
2023/10/04 08:35:27;;;;;;;13.40;4.85;;;;;;;22.86;70.69;99694.66;4909626;29;20519;-83
2023/10/04 08:38:11;;;;;;;11.93;5.47;;;;;;;22.87;70.10;99682.91;4905629;29;20047;-84
2023/10/04 08:40:56;;;;;;;9.48;4.25;;;;;;;23.38;69.48;99678.81;4911889;29;20088;-84
2023/10/04 08:43:44;;;;;;;14.07;4.90;;;;;;;23.25;68.84;99691.66;4895294;29;20399;-83
2023/10/04 08:46:28;;;;;;;11.48;4.30;;;;;;;23.35;68.77;99693.56;4910545;29;20128;-83
2023/10/04 08:49:15;;;;;;;10.57;4.57;;;;;;;23.72;68.74;99704.34;4906052;29;20048;-83
2023/10/04 08:52:09;;;;;;;8.82;4.82;;;;;;;23.99;67.87;99697.94;4902925;29;20076;-82
2023/10/04 08:55:05;;;;;;;14.50;4.97;;;;;;;23.90;68.05;99703.03;4890508;29;20039;-83
2023/10/04 08:57:50;;;;;;;16.02;5.07;;;;;;;23.91;67.37;99692.03;4911068;29;20046;-83
2023/10/04 09:00:35;;;;;;;10.52;4.45;;;;;;;23.89;67.44;99699.53;4908891;29;20423;-83
2023/10/04 09:03:23;;;;;;;15.07;5.20;;;;;;;24.15;67.51;99701.44;4898566;29;20063;-83
2023/10/04 09:06:11;;;;;;;10.70;4.70;;;;;;;24.18;68.08;99687.50;4905935;29;20513;-84
2023/10/04 09:08:56;;;;;;;12.52;4.72;;;;;;;24.26;66.42;99700.38;4905861;29;20047;-85
2023/10/04 09:11:41;;;;;;;10.50;4.93;;;;;;;24.35;67.36;99695.25;4908823;29;20411;-83
2023/10/04 09:14:27;;;;;;;7.93;4.05;;;;;;;24.62;66.80;99678.84;4909005;29;20095;-84
2023/10/04 09:17:14;;;;;;;13.95;5.45;;;;;;;24.48;66.43;99685.84;4904383;29;20051;-83
2023/10/04 09:20:10;;;;;;;9.68;4.88;;;;;;;24.81;65.57;99694.41;4910111;29;20051;-85
2023/10/04 09:22:54;;;;;;;10.50;4.97;;;;;;;24.76;66.09;99689.00;4907921;29;21705;-85
2023/10/04 09:25:40;;;;;;;8.85;4.30;;;;;;;24.86;65.39;99690.88;4890827;29;20099;-85
2023/10/04 09:28:40;;;;;;;15.95;4.85;;;;;;;24.83;65.17;99688.72;4893043;29;20133;-84
2023/10/04 09:31:26;;;;;;;13.13;5.05;;;;;;;24.85;65.12;99682.03;4900040;29;20096;-84
2023/10/04 09:34:13;;;;;;;8.57;4.72;;;;;;;25.39;65.12;99679.63;4906636;29;20135;-84
2023/10/04 09:36:59;;;;;;;10.30;4.93;;;;;;;25.09;65.26;99676.81;4903568;29;20048;-85
2023/10/04 09:39:43;;;;;;;11.60;5.05;;;;;;;25.66;64.68;99673.84;4891276;29;20099;-84
2023/10/04 09:42:29;;;;;;;13.60;5.20;;;;;;;25.99;64.30;99676.00;4909986;29;20047;-84
2023/10/04 09:45:14;;;;;;;11.20;5.55;;;;;;;26.02;64.23;99664.69;4894961;29;20050;-85
2023/10/04 09:48:03;;;;;;;12.65;4.88;;;;;;;25.92;62.84;99670.13;4906704;29;20050;-85
2023/10/04 09:50:47;;;;;;;12.68;5.38;;;;;;;26.06;62.77;99681.06;4906799;29;20052;-85
2023/10/04 09:53:32;;;;;;;13.70;5.25;;;;;;;25.98;62.83;99668.22;4892391;29;20051;-85
2023/10/04 09:56:17;;;;;;;11.75;5.15;;;;;;;25.34;63.05;99667.03;4907278;29;20096;-84
2023/10/04 09:59:03;;;;;;;16.33;6.63;;;;;;;25.24;63.28;99684.00;4904819;29;20047;-83
2023/10/04 10:01:57;;;;;;;13.15;5.25;;;;;;;25.67;63.48;99671.94;4905407;29;20063;-85
2023/10/04 10:04:43;;;;;;;12.95;6.25;;;;;;;25.65;62.59;99676.81;4903732;29;20454;-84
2023/10/04 10:07:33;;;;;;;15.02;5.50;;;;;;;24.89;62.52;99682.28;4888547;29;20395;-84
2023/10/04 10:10:20;;;;;;;14.63;5.85;;;;;;;24.94;64.28;99668.84;4890511;29;20108;-84
2023/10/04 10:13:06;;;;;;;14.30;5.68;;;;;;;24.68;65.14;99667.00;4904672;29;20426;-85
2023/10/04 10:15:53;;;;;;;15.73;6.03;;;;;;;25.00;62.94;99661.56;4902936;29;20104;-84
2023/10/04 10:18:38;;;;;;;10.52;5.68;;;;;;;24.65;63.13;99670.25;4906750;29;20112;-84
2023/10/04 10:22:02;;;;;;;14.65;5.25;;;;;;;25.65;62.16;99663.34;4893168;29;21245;-84
2023/10/04 10:25:16;;;;;;;14.68;6.22;;;;;;;25.28;61.99;99662.78;4900786;29;20074;-84
2023/10/04 10:28:04;;;;;;;15.32;5.35;;;;;;;25.85;62.97;99667.78;4904316;29;20068;-84
2023/10/04 10:30:59;;;;;;;17.48;5.70;;;;;;;25.55;62.74;99655.34;4901135;29;20035;-82
2023/10/04 10:33:43;;;;;;;19.42;6.53;;;;;;;26.05;61.32;99652.56;4900864;29;20051;-83
2023/10/04 10:36:33;;;;;;;16.25;5.22;;;;;;;26.35;62.04;99639.91;4906258;29;20051;-84
2023/10/04 10:39:21;;;;;;;13.35;5.47;;;;;;;26.89;59.09;99647.94;4903144;29;20099;-84
2023/10/04 10:42:07;;;;;;;13.77;5.88;;;;;;;26.65;59.10;99638.75;4892637;29;20096;-83
2023/10/04 10:45:26;;;;;;;18.30;5.88;;;;;;;25.87;60.33;99667.50;4888892;29;20088;-85
2023/10/04 10:48:13;;;;;;;9.75;5.32;;;;;;;26.20;60.01;99648.94;4908471;29;20050;-83
2023/10/04 10:50:57;;;;;;;11.77;6.20;;;;;;;26.88;58.97;99652.53;4905559;29;20134;-83
2023/10/04 10:53:42;;;;;;;24.65;6.97;;;;;;;26.04;59.12;99656.31;4916887;29;20148;-84
2023/10/04 10:56:27;;;;;;;14.15;6.07;;;;;;;25.84;59.72;99649.25;4901816;29;20127;-84
2023/10/04 10:59:11;;;;;;;15.55;5.82;;;;;;;25.27;60.41;99628.09;4909830;29;20103;-84
2023/10/04 11:01:55;;;;;;;15.32;6.07;;;;;;;26.08;59.82;99652.78;4901681;29;20043;-84
2023/10/04 11:04:39;;;;;;;14.00;6.05;;;;;;;25.99;59.26;99638.34;4892535;29;20096;-84
2023/10/04 11:07:23;;;;;;;17.83;5.40;;;;;;;25.79;60.21;99656.28;4907851;29;20118;-84
2023/10/04 11:10:07;;;;;;;17.80;6.53;;;;;;;25.55;58.83;99631.97;4904757;29;20108;-84
2023/10/04 11:12:58;;;;;;;12.82;5.65;;;;;;;25.49;59.22;99628.53;4904427;29;20054;-83
2023/10/04 11:15:46;;;;;;;15.35;5.82;;;;;;;25.86;60.18;99629.06;4902251;29;20127;-83
2023/10/04 11:18:30;;;;;;;15.48;6.07;;;;;;;26.00;60.30;99628.38;4885214;29;20052;-84
2023/10/04 11:21:14;;;;;;;16.02;5.55;;;;;;;25.33;59.91;99627.81;4904070;29;20134;-84
2023/10/04 11:24:01;;;;;;;15.93;6.50;;;;;;;25.45;60.50;99623.94;4903407;29;20521;-83
2023/10/04 11:26:46;;;;;;;15.02;5.88;;;;;;;25.69;59.98;99625.97;4908220;29;20553;-84
2023/10/04 11:29:30;;;;;;;14.05;6.32;;;;;;;25.59;60.50;99632.22;4909140;29;20058;-84
2023/10/04 11:32:15;;;;;;;18.65;6.30;;;;;;;25.38;59.72;99635.03;4900208;29;20063;-83
2023/10/04 11:35:07;;;;;;;15.20;6.00;;;;;;;25.45;59.49;99621.25;4910798;29;20193;-83
2023/10/04 11:37:52;;;;;;;13.30;5.93;;;;;;;25.90;59.00;99627.41;4919371;29;20127;-82
2023/10/04 11:40:38;;;;;;;19.75;6.95;;;;;;;26.01;58.65;99625.41;4886854;29;20549;-82
2023/10/04 11:43:25;;;;;;;16.98;6.07;;;;;;;25.97;58.49;99623.56;4874298;29;20099;-83
2023/10/04 11:46:10;;;;;;;19.60;5.60;;;;;;;25.15;59.87;99623.88;4892062;29;20054;-82
2023/10/04 11:49:11;;;;;;;13.20;6.32;;;;;;;25.52;58.97;99619.09;4910056;29;20043;-83
2023/10/04 11:52:01;;;;;;;14.00;5.65;;;;;;;25.48;59.75;99623.44;4903218;29;20103;-84
2023/10/04 11:54:45;;;;;;;15.30;6.15;;;;;;;25.53;59.26;99610.75;4907529;29;20120;-84
2023/10/04 11:57:37;;;;;;;14.88;6.35;;;;;;;26.39;59.08;99619.41;4904154;29;20051;-84
2023/10/04 12:00:21;;;;;;;13.75;5.95;;;;;;;25.22;59.56;99608.25;4913878;29;20044;-82
2023/10/04 12:03:06;;;;;;;13.32;6.95;;;;;;;25.90;59.05;99607.75;4900783;29;20038;-83
2023/10/04 12:05:50;;;;;;;17.02;7.53;;;;;;;26.25;58.37;99589.69;4923981;29;20055;-82
2023/10/04 12:08:36;;;;;;;14.13;5.82;;;;;;;26.37;58.19;99600.88;4905072;29;20039;-82
2023/10/04 12:15:14;;;;;;;14.25;6.13;;;;;;;24.92;59.06;99587.75;4918943;29;20595;-84
2023/10/04 12:17:58;;;;;;;12.48;5.80;;;;;;;25.18;59.63;99591.09;4918490;29;20091;-84
2023/10/04 12:20:43;;;;;;;11.63;5.10;;;;;;;25.50;58.95;99584.44;4905502;29;20076;-84
2023/10/04 12:23:27;;;;;;;16.17;5.53;;;;;;;25.42;59.31;99568.91;4921769;29;20470;-85
2023/10/04 12:26:11;;;;;;;11.13;6.05;;;;;;;25.73;59.16;99576.72;4920356;29;20043;-82
2023/10/04 12:28:55;;;;;;;12.88;5.47;;;;;;;25.22;59.56;99588.63;4904267;29;20430;-84
2023/10/04 12:31:39;;;;;;;11.23;6.20;;;;;;;26.26;59.18;99561.69;4907982;29;20047;-85
2023/10/04 12:34:24;;;;;;;11.75;5.40;;;;;;;25.71;58.56;99552.00;4922127;29;20107;-83
2023/10/04 12:37:08;;;;;;;12.95;4.97;;;;;;;26.43;58.62;99568.50;4921211;29;20047;-83
2023/10/04 12:39:53;;;;;;;11.05;5.38;;;;;;;26.86;57.52;99573.13;4907858;29;20389;-84
2023/10/04 12:42:37;;;;;;;13.07;5.88;;;;;;;27.04;57.84;99566.13;4907748;29;20046;-85
2023/10/04 12:45:21;;;;;;;14.25;6.18;;;;;;;27.71;56.68;99565.09;4921718;29;20395;-84
2023/10/04 12:48:06;;;;;;;16.38;5.32;;;;;;;27.48;56.54;99570.28;4907627;29;20055;-83
2023/10/04 12:50:51;;;;;;;11.05;5.82;;;;;;;27.51;57.12;99561.66;4924390;29;20127;-83
2023/10/04 12:53:36;;;;;;;9.88;5.13;;;;;;;27.24;59.29;99562.34;4920826;29;20048;-83
2023/10/04 12:56:20;;;;;;;14.30;5.15;;;;;;;27.00;60.38;99567.81;4915455;29;20043;-83